Time;durP1;ratioP1;P1;durP2;ratioP2;P2;SDS_P1;SDS_P2;PMS_P1;PMS_P2;Temp;Humidity;BMP_temperature;BMP_pressure;BME280_temperature;BME280_humidity;BME280_pressure;Samples;Min_cycle;Max_cycle;Signal;HPM_P1;HPM_P2
2023/11/05 00:01:57;;;;;;;8.03;4.73;;;9.30;99.90;;;;;;5053551;28;20190;-69
2023/11/05 00:04:23;;;;;;;9.37;4.63;;;9.30;99.90;;;;;;5053530;28;20582;-69
2023/11/05 00:06:49;;;;;;;7.77;4.10;;;9.30;99.90;;;;;;5053371;28;20183;-69
2023/11/05 00:09:15;;;;;;;10.00;4.97;;;9.30;99.90;;;;;;5053321;28;20178;-69
2023/11/05 00:11:40;;;;;;;5.50;4.27;;;9.20;99.90;;;;;;5053345;28;20254;-69
2023/11/05 00:14:06;;;;;;;5.53;4.27;;;9.30;99.90;;;;;;5053353;28;20354;-69
2023/11/05 00:16:32;;;;;;;5.90;4.43;;;9.30;99.90;;;;;;5053019;28;20210;-69
2023/11/05 00:18:57;;;;;;;7.73;5.03;;;9.30;99.90;;;;;;5053490;28;20536;-69
2023/11/05 00:21:23;;;;;;;7.13;4.30;;;9.40;99.90;;;;;;5052942;28;20670;-69
2023/11/05 00:23:48;;;;;;;9.00;4.90;;;9.40;99.90;;;;;;5052919;28;20194;-69
2023/11/05 00:26:14;;;;;;;7.97;4.30;;;9.40;99.90;;;;;;5053273;28;20283;-69
2023/11/05 00:28:40;;;;;;;9.67;4.20;;;9.40;99.90;;;;;;5052844;28;20197;-69
2023/11/05 00:31:05;;;;;;;11.17;4.70;;;9.40;99.90;;;;;;5052948;28;20174;-69
2023/11/05 00:33:31;;;;;;;10.83;4.43;;;9.50;99.90;;;;;;5052731;28;20670;-70
2023/11/05 00:35:57;;;;;;;8.23;4.43;;;9.60;99.90;;;;;;5052994;28;20175;-69
2023/11/05 00:38:23;;;;;;;5.47;3.93;;;9.60;99.90;;;;;;5052996;28;20664;-69
2023/11/05 00:40:48;;;;;;;7.80;4.37;;;9.70;99.90;;;;;;5052909;28;20238;-69
2023/11/05 00:43:14;;;;;;;7.37;4.33;;;9.80;99.90;;;;;;5052547;28;20186;-70
2023/11/05 00:45:39;;;;;;;9.70;4.10;;;9.90;99.90;;;;;;5052224;28;20195;-70
2023/11/05 00:48:05;;;;;;;7.57;4.20;;;9.90;99.90;;;;;;5052758;28;20270;-69
2023/11/05 00:50:31;;;;;;;5.10;3.93;;;10.00;99.90;;;;;;5052888;28;20179;-69
2023/11/05 00:52:56;;;;;;;6.77;4.27;;;10.00;99.90;;;;;;5052733;28;20175;-68
2023/11/05 00:55:22;;;;;;;12.33;4.07;;;10.10;99.90;;;;;;5052218;28;20567;-69
2023/11/05 00:57:47;;;;;;;6.17;4.10;;;10.10;99.90;;;;;;5052515;28;20179;-70
2023/11/05 01:00:13;;;;;;;6.20;3.80;;;10.10;99.90;;;;;;5052467;28;20174;-69
2023/11/05 01:02:39;;;;;;;7.20;3.67;;;10.10;99.90;;;;;;5052442;28;20584;-69
2023/11/05 01:05:06;;;;;;;5.40;4.27;;;10.10;99.90;;;;;;5052410;28;20486;-69
2023/11/05 01:07:32;;;;;;;6.73;3.70;;;10.10;99.90;;;;;;5051972;28;20175;-69
2023/11/05 01:09:58;;;;;;;8.23;3.53;;;10.10;99.90;;;;;;5052228;28;20197;-70
2023/11/05 01:12:23;;;;;;;8.00;3.87;;;10.10;99.90;;;;;;5051750;28;20187;-70
2023/11/05 01:14:49;;;;;;;6.33;3.70;;;10.00;99.90;;;;;;5052261;28;20203;-70
2023/11/05 01:17:15;;;;;;;6.63;4.40;;;10.00;99.90;;;;;;5051897;28;20193;-69
2023/11/05 01:19:41;;;;;;;4.87;3.57;;;10.00;99.90;;;;;;5052020;28;20210;-69
2023/11/05 01:22:07;;;;;;;3.97;3.43;;;10.00;99.90;;;;;;5052067;28;20167;-70
2023/11/05 01:24:34;;;;;;;5.23;3.73;;;10.00;99.90;;;;;;5051840;28;20190;-69
2023/11/05 01:26:59;;;;;;;4.27;3.70;;;10.00;99.90;;;;;;5051361;28;20194;-69
2023/11/05 01:29:25;;;;;;;8.17;4.27;;;10.10;99.90;;;;;;5050966;28;20179;-69
2023/11/05 01:31:50;;;;;;;6.20;3.77;;;10.10;99.90;;;;;;5051295;28;20179;-69
2023/11/05 01:34:16;;;;;;;4.23;3.70;;;10.10;99.90;;;;;;5050497;28;20229;-68
2023/11/05 01:36:42;;;;;;;7.83;4.77;;;10.10;99.90;;;;;;5050734;28;20179;-69
2023/11/05 01:39:08;;;;;;;6.03;3.47;;;10.10;99.90;;;;;;5050747;28;20206;-70
2023/11/05 01:41:34;;;;;;;7.43;4.10;;;10.10;99.90;;;;;;5050720;28;20171;-69
2023/11/05 01:44:00;;;;;;;8.97;4.17;;;10.10;99.90;;;;;;5050956;28;20191;-69
2023/11/05 01:46:26;;;;;;;6.50;3.93;;;10.10;99.90;;;;;;5050519;28;20182;-70
2023/11/05 01:48:53;;;;;;;5.90;4.50;;;10.10;99.90;;;;;;5050834;28;20175;-69
2023/11/05 01:51:20;;;;;;;6.87;4.20;;;10.10;99.90;;;;;;5050531;28;20178;-69
2023/11/05 01:53:50;;;;;;;9.53;4.67;;;10.10;99.90;;;;;;5050304;28;20209;-69
2023/11/05 01:56:17;;;;;;;8.37;4.40;;;10.10;99.90;;;;;;5050585;28;20179;-70
2023/11/05 01:58:43;;;;;;;7.83;3.87;;;10.10;99.90;;;;;;5050393;28;20552;-69
2023/11/05 02:01:09;;;;;;;7.80;3.60;;;10.20;99.90;;;;;;5050342;28;20186;-69
2023/11/05 02:03:37;;;;;;;6.07;4.27;;;10.10;99.90;;;;;;5050230;28;20220;-69
2023/11/05 02:06:03;;;;;;;6.20;3.87;;;10.20;99.90;;;;;;5050501;28;20163;-69
2023/11/05 02:08:29;;;;;;;4.40;3.77;;;10.20;99.90;;;;;;5050269;28;20210;-69
2023/11/05 02:10:55;;;;;;;7.97;4.47;;;10.20;99.90;;;;;;5050498;28;20205;-69
2023/11/05 02:13:22;;;;;;;6.23;3.80;;;10.30;99.90;;;;;;5050250;28;20367;-69
2023/11/05 02:15:48;;;;;;;7.10;3.90;;;10.30;99.90;;;;;;5050117;28;20293;-69
2023/11/05 02:18:14;;;;;;;8.63;4.23;;;10.30;99.90;;;;;;5050468;28;20590;-69
2023/11/05 02:20:40;;;;;;;10.03;4.20;;;10.40;99.90;;;;;;5049993;28;20184;-71
2023/11/05 02:23:08;;;;;;;5.57;4.23;;;10.40;99.90;;;;;;5050309;28;20182;-70
2023/11/05 02:25:34;;;;;;;5.13;3.83;;;10.50;99.90;;;;;;5010837;28;1116808;-69
2023/11/05 02:28:01;;;;;;;6.17;3.87;;;10.50;99.90;;;;;;5051100;28;20178;-69
2023/11/05 02:30:27;;;;;;;6.83;3.43;;;10.50;99.90;;;;;;5051096;28;20755;-69
2023/11/05 02:32:53;;;;;;;5.53;3.10;;;10.60;99.90;;;;;;5050957;28;20179;-69
2023/11/05 02:35:18;;;;;;;5.47;3.73;;;10.60;99.90;;;;;;5050550;28;20207;-69
2023/11/05 02:37:44;;;;;;;3.57;3.27;;;10.60;99.90;;;;;;5050689;28;20213;-69
2023/11/05 02:40:10;;;;;;;5.37;3.27;;;10.70;99.90;;;;;;5050935;28;20548;-69
2023/11/05 02:42:37;;;;;;;8.23;4.13;;;10.70;99.90;;;;;;5050820;28;20258;-69
2023/11/05 02:45:06;;;;;;;5.87;3.70;;;10.70;99.90;;;;;;5050862;28;20244;-69
2023/11/05 02:47:31;;;;;;;3.77;3.40;;;10.70;99.90;;;;;;5053674;28;20171;-69
2023/11/05 02:49:58;;;;;;;10.30;3.93;;;10.60;99.90;;;;;;5055026;28;20248;-69
2023/11/05 02:52:23;;;;;;;5.00;3.53;;;10.60;99.90;;;;;;5055039;28;20178;-69
2023/11/05 02:54:49;;;;;;;5.30;4.13;;;10.50;99.90;;;;;;5054774;28;20714;-69
2023/11/05 02:57:20;;;;;;;4.43;3.50;;;10.40;99.90;;;;;;5054739;28;20203;-70
2023/11/05 02:59:46;;;;;;;4.93;3.40;;;10.40;99.90;;;;;;5054798;28;20237;-69
2023/11/05 03:02:12;;;;;;;5.20;3.50;;;10.30;99.90;;;;;;5054637;28;20167;-70
2023/11/05 03:04:37;;;;;;;5.80;3.50;;;10.20;99.90;;;;;;5054659;28;20185;-70
2023/11/05 03:07:03;;;;;;;6.27;3.50;;;10.20;99.90;;;;;;5054119;28;20189;-70
2023/11/05 03:09:28;;;;;;;4.53;3.37;;;10.10;99.90;;;;;;5054465;28;20637;-69
2023/11/05 03:11:54;;;;;;;5.50;3.40;;;10.10;99.90;;;;;;5054420;28;20262;-70
2023/11/05 03:14:20;;;;;;;6.33;3.60;;;10.10;99.90;;;;;;5054457;28;20190;-69
2023/11/05 03:16:46;;;;;;;5.33;3.50;;;10.10;99.90;;;;;;5053934;28;20183;-69
2023/11/05 03:19:13;;;;;;;4.70;3.50;;;10.10;99.90;;;;;;5054462;28;20230;-69
2023/11/05 03:21:39;;;;;;;3.87;3.57;;;10.10;99.90;;;;;;5054286;28;20602;-69
2023/11/05 03:24:07;;;;;;;5.40;3.80;;;10.10;99.90;;;;;;5054317;28;20274;-70
2023/11/05 03:26:32;;;;;;;5.27;3.70;;;10.10;99.90;;;;;;5053904;28;20705;-70
2023/11/05 03:28:58;;;;;;;5.57;3.93;;;10.00;99.90;;;;;;5054205;28;20171;-70
2023/11/05 03:31:24;;;;;;;5.07;3.47;;;10.10;99.90;;;;;;5054111;28;20222;-70
2023/11/05 03:33:49;;;;;;;4.80;3.70;;;10.10;99.90;;;;;;5054143;28;20568;-69
2023/11/05 03:36:15;;;;;;;5.67;3.60;;;10.10;99.90;;;;;;5053974;28;20258;-69
2023/11/05 03:38:40;;;;;;;5.57;3.80;;;10.00;99.90;;;;;;5036288;28;20249;-69
2023/11/05 03:41:09;;;;;;;4.07;3.77;;;10.00;99.90;;;;;;5054074;28;20199;-70
2023/11/05 03:43:35;;;;;;;4.20;3.40;;;10.00;99.90;;;;;;5053717;28;20212;-69
2023/11/05 03:46:04;;;;;;;5.63;4.10;;;10.00;99.90;;;;;;5054278;28;20178;-69
2023/11/05 03:48:30;;;;;;;5.37;3.70;;;10.00;99.90;;;;;;5054514;28;20178;-69
2023/11/05 03:50:55;;;;;;;4.43;3.53;;;10.00;99.90;;;;;;5054024;28;20232;-69
2023/11/05 03:53:21;;;;;;;5.67;3.67;;;10.00;99.90;;;;;;5053777;28;20183;-71
2023/11/05 03:55:47;;;;;;;4.00;3.60;;;10.00;99.90;;;;;;5053585;28;20187;-70
2023/11/05 03:58:12;;;;;;;3.93;3.50;;;10.00;99.90;;;;;;5053682;28;20688;-70
2023/11/05 04:00:38;;;;;;;6.67;4.63;;;10.00;99.90;;;;;;5053906;28;20179;-70
2023/11/05 04:03:03;;;;;;;3.80;3.47;;;10.00;99.90;;;;;;5054248;28;20541;-70
2023/11/05 04:05:29;;;;;;;4.33;3.60;;;10.00;99.90;;;;;;5053825;28;20277;-71
2023/11/05 04:07:55;;;;;;;4.37;3.80;;;10.00;99.90;;;;;;5053382;28;20205;-70
2023/11/05 04:10:21;;;;;;;4.27;3.70;;;10.00;99.90;;;;;;5053533;28;20236;-70
2023/11/05 04:12:46;;;;;;;4.33;3.93;;;10.00;99.90;;;;;;5053472;28;20170;-70
2023/11/05 04:15:12;;;;;;;4.43;4.13;;;10.00;99.90;;;;;;5053654;28;20190;-70
2023/11/05 04:17:38;;;;;;;4.40;4.00;;;10.00;99.90;;;;;;5053569;28;20558;-70
2023/11/05 04:20:04;;;;;;;4.80;4.20;;;10.00;99.90;;;;;;5052387;28;20209;-70
2023/11/05 04:22:30;;;;;;;9.00;3.90;;;10.00;99.90;;;;;;5053578;28;20182;-70
2023/11/05 04:24:56;;;;;;;4.93;3.60;;;10.00;99.90;;;;;;5053347;28;20190;-70
2023/11/05 04:27:22;;;;;;;3.83;3.50;;;10.00;99.90;;;;;;5052907;28;20709;-69
2023/11/05 04:29:48;;;;;;;3.90;3.60;;;10.00;99.90;;;;;;5053188;28;20201;-70
2023/11/05 04:32:14;;;;;;;4.13;3.57;;;10.00;99.90;;;;;;5053320;28;20257;-70
2023/11/05 04:34:40;;;;;;;4.10;3.80;;;9.90;99.90;;;;;;5053028;28;20198;-70
2023/11/05 04:37:06;;;;;;;4.90;3.90;;;10.00;99.90;;;;;;5053157;28;20628;-70
2023/11/05 04:39:32;;;;;;;3.70;3.40;;;9.90;99.90;;;;;;5052698;28;20217;-71
2023/11/05 04:41:57;;;;;;;4.23;3.40;;;9.90;99.90;;;;;;5053059;28;20175;-70
2023/11/05 04:44:23;;;;;;;4.07;3.30;;;9.90;99.90;;;;;;5053080;28;20195;-70
2023/11/05 04:46:49;;;;;;;3.80;3.60;;;9.90;99.90;;;;;;5052754;28;20174;-70
2023/11/05 04:49:15;;;;;;;3.00;2.90;;;10.00;99.90;;;;;;5053096;28;20214;-70
2023/11/05 04:51:44;;;;;;;3.40;3.20;;;10.00;99.90;;;;;;5052697;28;20205;-70
2023/11/05 04:54:10;;;;;;;3.23;3.03;;;10.00;99.90;;;;;;5052796;28;20198;-70
2023/11/05 04:56:35;;;;;;;3.13;2.93;;;10.00;99.90;;;;;;5052723;28;20170;-70
2023/11/05 04:59:01;;;;;;;3.00;2.90;;;10.00;99.90;;;;;;5052640;28;20202;-70
2023/11/05 05:01:27;;;;;;;3.10;2.90;;;10.00;99.90;;;;;;5052546;28;20249;-70
2023/11/05 05:03:53;;;;;;;4.50;3.00;;;10.10;99.90;;;;;;5052575;28;20187;-70
2023/11/05 05:06:19;;;;;;;3.30;3.10;;;10.10;99.90;;;;;;5052557;28;20164;-70
2023/11/05 05:08:45;;;;;;;4.57;3.07;;;10.10;99.90;;;;;;5050984;28;20183;-70
2023/11/05 05:11:12;;;;;;;3.20;3.10;;;10.10;99.90;;;;;;5052595;28;20221;-70
2023/11/05 05:13:38;;;;;;;3.30;3.10;;;10.10;99.90;;;;;;5052298;28;20169;-70
2023/11/05 05:16:06;;;;;;;3.07;2.97;;;10.10;99.90;;;;;;5052463;28;20257;-70
2023/11/05 05:18:31;;;;;;;3.33;3.03;;;10.20;99.90;;;;;;5052412;28;20614;-71
2023/11/05 05:20:57;;;;;;;3.60;3.37;;;10.20;99.90;;;;;;5052083;28;20175;-71
2023/11/05 05:23:23;;;;;;;3.57;3.30;;;10.20;99.90;;;;;;5052160;28;20172;-70
2023/11/05 05:25:48;;;;;;;2.80;2.70;;;10.20;99.90;;;;;;5051766;28;20178;-70
2023/11/05 05:28:14;;;;;;;3.20;3.00;;;10.30;99.90;;;;;;5052369;28;20624;-70
2023/11/05 05:30:39;;;;;;;3.10;3.00;;;10.30;99.90;;;;;;5052231;28;20182;-69
2023/11/05 05:33:06;;;;;;;3.27;3.07;;;10.30;99.90;;;;;;5052462;28;20610;-69
2023/11/05 05:35:32;;;;;;;3.20;3.00;;;10.30;99.90;;;;;;5051675;28;20198;-70
2023/11/05 05:37:57;;;;;;;3.10;2.90;;;10.30;99.90;;;;;;5051572;28;20175;-70
2023/11/05 05:40:23;;;;;;;3.30;3.20;;;10.30;99.90;;;;;;5051975;28;20167;-70
2023/11/05 05:42:49;;;;;;;3.00;2.90;;;10.30;99.90;;;;;;5051890;28;20563;-71
2023/11/05 05:45:14;;;;;;;3.50;3.20;;;10.30;99.90;;;;;;5051792;28;20679;-70
2023/11/05 05:47:41;;;;;;;3.57;3.30;;;10.30;99.90;;;;;;5051345;28;20186;-70
2023/11/05 05:50:07;;;;;;;3.07;2.90;;;10.20;99.90;;;;;;5051867;28;20198;-70
2023/11/05 05:52:33;;;;;;;3.60;3.07;;;10.20;99.90;;;;;;5051842;28;20533;-71
2023/11/05 05:55:02;;;;;;;2.90;2.80;;;10.20;99.90;;;;;;5051508;28;20191;-70
2023/11/05 05:57:27;;;;;;;3.13;2.93;;;10.20;99.90;;;;;;5051415;28;20228;-70
2023/11/05 05:59:53;;;;;;;3.27;2.90;;;10.20;99.90;;;;;;5051748;28;20225;-70
2023/11/05 06:02:19;;;;;;;3.00;2.90;;;10.20;99.90;;;;;;5051375;28;20175;-70
2023/11/05 06:04:44;;;;;;;3.70;2.70;;;10.20;99.90;;;;;;5051533;28;20645;-70
2023/11/05 06:07:10;;;;;;;3.60;3.30;;;10.20;99.90;;;;;;5051339;28;20605;-70
2023/11/05 06:09:35;;;;;;;3.00;2.90;;;10.20;99.90;;;;;;5051046;28;20228;-70
2023/11/05 06:12:01;;;;;;;3.33;3.13;;;10.20;99.90;;;;;;5051538;28;20639;-70
2023/11/05 06:14:27;;;;;;;3.10;2.90;;;10.20;99.90;;;;;;5051516;28;20221;-70
2023/11/05 06:16:53;;;;;;;3.60;3.30;;;10.20;99.90;;;;;;5051411;28;20632;-70
2023/11/05 06:19:18;;;;;;;3.60;3.00;;;10.20;99.90;;;;;;5050804;28;20264;-70
2023/11/05 06:21:45;;;;;;;3.43;3.13;;;10.20;99.90;;;;;;5051096;28;20178;-69
2023/11/05 06:24:11;;;;;;;3.17;3.07;;;10.10;99.90;;;;;;5051587;28;20197;-70
2023/11/05 06:26:46;;;;;;;3.33;3.13;;;10.10;99.90;;;;;;5051182;28;20189;-70
2023/11/05 06:29:12;;;;;;;3.10;2.90;;;10.10;99.90;;;;;;5051290;28;20163;-70
2023/11/05 06:31:37;;;;;;;3.20;3.00;;;10.10;99.90;;;;;;5051043;28;20189;-70
2023/11/05 06:34:03;;;;;;;3.33;3.13;;;10.20;99.90;;;;;;5051231;28;20766;-70
2023/11/05 06:36:30;;;;;;;3.40;3.10;;;10.20;99.90;;;;;;5051118;28;20232;-70
2023/11/05 06:38:55;;;;;;;3.00;2.80;;;10.20;99.90;;;;;;5051051;28;20205;-70
2023/11/05 06:41:21;;;;;;;3.23;3.03;;;10.20;99.90;;;;;;5051213;28;20170;-70
2023/11/05 06:43:47;;;;;;;3.77;3.30;;;10.10;99.90;;;;;;5050873;28;20186;-70
2023/11/05 06:46:13;;;;;;;3.07;2.87;;;10.10;99.90;;;;;;5050722;28;20174;-70
2023/11/05 06:48:38;;;;;;;4.13;2.97;;;10.00;99.90;;;;;;5051142;28;20178;-70
2023/11/05 06:51:04;;;;;;;3.80;3.60;;;10.00;99.90;;;;;;5051012;28;20185;-70
2023/11/05 06:53:30;;;;;;;3.40;3.20;;;10.00;99.90;;;;;;5050952;28;20171;-70
2023/11/05 06:55:56;;;;;;;5.60;3.57;;;10.00;99.90;;;;;;5050746;28;20225;-69
2023/11/05 06:58:21;;;;;;;6.50;3.30;;;10.00;99.90;;;;;;5050845;28;20286;-70
2023/11/05 07:00:47;;;;;;;3.60;3.30;;;10.00;99.90;;;;;;5051083;28;20163;-70
2023/11/05 07:03:12;;;;;;;5.00;3.20;;;10.00;99.90;;;;;;5050840;28;20178;-70
2023/11/05 07:05:39;;;;;;;3.47;3.20;;;10.00;99.90;;;;;;5050478;28;20195;-70
2023/11/05 07:08:05;;;;;;;3.63;3.20;;;10.10;99.90;;;;;;5050703;28;20258;-70
2023/11/05 07:10:31;;;;;;;3.30;3.10;;;10.00;99.90;;;;;;5050790;28;20245;-70
2023/11/05 07:12:57;;;;;;;3.50;3.20;;;10.00;99.90;;;;;;5050346;28;20175;-70
2023/11/05 07:15:24;;;;;;;4.33;3.13;;;10.00;99.90;;;;;;5050697;28;20260;-70
2023/11/05 07:17:50;;;;;;;3.40;3.20;;;10.00;99.90;;;;;;5050363;28;20202;-71
2023/11/05 07:20:16;;;;;;;3.40;3.20;;;10.00;99.90;;;;;;5050784;28;20221;-70
2023/11/05 07:22:43;;;;;;;3.20;3.10;;;10.00;99.90;;;;;;5050775;28;20695;-70
2023/11/05 07:25:09;;;;;;;3.50;3.30;;;10.10;99.90;;;;;;5050213;28;20194;-70
2023/11/05 07:27:36;;;;;;;3.63;3.43;;;10.10;99.90;;;;;;5049428;28;20175;-71
2023/11/05 07:30:03;;;;;;;3.33;3.03;;;10.00;99.90;;;;;;5050254;28;20628;-70
2023/11/05 07:32:29;;;;;;;3.50;3.20;;;10.00;99.90;;;;;;5051874;28;20552;-70
2023/11/05 07:34:54;;;;;;;3.70;3.50;;;10.00;99.90;;;;;;5053698;28;20237;-70
2023/11/05 07:37:20;;;;;;;4.07;3.70;;;10.00;99.90;;;;;;5053904;28;20715;-70
2023/11/05 07:39:45;;;;;;;5.33;4.83;;;10.00;99.90;;;;;;5053942;28;20212;-70
2023/11/05 07:42:11;;;;;;;4.20;4.00;;;10.10;99.90;;;;;;5053624;28;20182;-70
2023/11/05 07:44:37;;;;;;;3.13;3.00;;;10.10;99.90;;;;;;5053852;28;20565;-70
2023/11/05 07:47:03;;;;;;;3.23;3.07;;;10.10;99.90;;;;;;5053533;28;20175;-70
2023/11/05 07:49:29;;;;;;;3.83;3.20;;;10.10;99.90;;;;;;5053878;28;20259;-70
2023/11/05 07:51:54;;;;;;;3.50;3.30;;;10.10;99.90;;;;;;5053588;28;20648;-70
2023/11/05 07:54:20;;;;;;;3.30;3.10;;;10.20;99.90;;;;;;5053463;28;20210;-70
2023/11/05 07:56:46;;;;;;;3.50;3.30;;;10.20;99.90;;;;;;5053500;28;20583;-70
2023/11/05 07:59:11;;;;;;;3.20;3.00;;;10.20;99.90;;;;;;5053578;28;20283;-70
2023/11/05 08:01:37;;;;;;;3.50;3.30;;;10.10;99.90;;;;;;5053594;28;20539;-70
2023/11/05 08:04:03;;;;;;;3.37;3.20;;;10.20;99.90;;;;;;5053470;28;20615;-70
2023/11/05 08:06:29;;;;;;;3.20;3.10;;;10.30;99.90;;;;;;5053570;28;20254;-70
2023/11/05 08:08:54;;;;;;;4.80;3.40;;;10.40;99.90;;;;;;5053188;28;20269;-70
2023/11/05 08:11:20;;;;;;;3.10;3.00;;;10.50;99.90;;;;;;5053649;28;20183;-70
2023/11/05 08:13:46;;;;;;;3.27;3.17;;;10.60;99.90;;;;;;5053272;28;20201;-70
2023/11/05 08:16:11;;;;;;;3.60;3.30;;;10.80;99.90;;;;;;5053096;28;20276;-70
2023/11/05 08:18:38;;;;;;;3.50;3.30;;;10.90;99.90;;;;;;5054052;28;20233;-70
2023/11/05 08:21:06;;;;;;;6.17;3.70;;;11.10;99.90;;;;;;5053014;28;20612;-70
2023/11/05 08:23:32;;;;;;;3.60;3.30;;;11.10;99.90;;;;;;5053387;28;20178;-69
2023/11/05 08:25:59;;;;;;;3.83;3.53;;;11.10;99.90;;;;;;5052792;28;20470;-69
2023/11/05 08:28:24;;;;;;;3.37;3.10;;;11.10;99.90;;;;;;5053476;28;20640;-70
2023/11/05 08:30:50;;;;;;;3.40;3.20;;;11.10;99.90;;;;;;5053136;28;20184;-70
2023/11/05 08:33:16;;;;;;;3.20;3.00;;;11.10;99.90;;;;;;5053164;28;20179;-70
2023/11/05 08:35:42;;;;;;;4.03;3.77;;;11.20;99.90;;;;;;5052624;28;20290;-70
2023/11/05 08:38:07;;;;;;;3.40;3.20;;;11.20;99.90;;;;;;5052860;28;20267;-70
2023/11/05 08:40:33;;;;;;;3.83;3.53;;;11.30;99.90;;;;;;5053481;28;20171;-70
2023/11/05 08:42:59;;;;;;;3.40;3.20;;;11.40;99.90;;;;;;5053770;28;20250;-70
2023/11/05 08:45:24;;;;;;;3.70;3.40;;;11.60;99.90;;;;;;5051552;28;20552;-70
2023/11/05 08:47:50;;;;;;;3.13;2.93;;;11.80;99.90;;;;;;5052643;28;20534;-70
2023/11/05 08:50:16;;;;;;;3.97;3.30;;;12.10;99.90;;;;;;5052538;28;20186;-70
2023/11/05 08:52:41;;;;;;;3.50;3.20;;;12.30;99.90;;;;;;5052705;28;20262;-70
2023/11/05 08:55:10;;;;;;;2.97;2.77;;;12.50;99.90;;;;;;5052509;28;20277;-70
2023/11/05 08:57:37;;;;;;;3.10;2.90;;;12.60;99.90;;;;;;5052673;28;20181;-70
2023/11/05 09:00:09;;;;;;;3.27;2.97;;;12.70;99.90;;;;;;5051857;28;20307;-70
2023/11/05 09:02:35;;;;;;;3.07;2.87;;;12.90;99.90;;;;;;5052527;28;20640;-70
2023/11/05 09:05:01;;;;;;;3.30;3.00;;;13.00;99.90;;;;;;5051902;28;20205;-71
2023/11/05 09:07:26;;;;;;;3.43;2.90;;;13.00;99.90;;;;;;5052187;28;20175;-70
2023/11/05 09:09:52;;;;;;;3.10;2.90;;;13.00;99.90;;;;;;5052063;28;20566;-70
2023/11/05 09:12:17;;;;;;;3.10;2.90;;;13.00;99.90;;;;;;5052212;28;20171;-70
2023/11/05 09:14:43;;;;;;;4.13;3.27;;;12.90;99.90;;;;;;5052164;28;20202;-70
2023/11/05 09:17:08;;;;;;;3.13;2.83;;;12.80;99.90;;;;;;5051744;28;20551;-70
2023/11/05 09:19:35;;;;;;;3.30;3.00;;;12.80;99.90;;;;;;5052247;28;20210;-70
2023/11/05 09:22:01;;;;;;;3.30;3.00;;;12.70;99.90;;;;;;5052118;28;20171;-70
2023/11/05 09:24:29;;;;;;;3.07;2.87;;;12.60;99.90;;;;;;5052208;28;20687;-70
2023/11/05 09:26:55;;;;;;;4.93;3.37;;;12.40;99.90;;;;;;5052006;28;20210;-70
2023/11/05 09:29:21;;;;;;;4.07;3.20;;;12.30;99.90;;;;;;5052096;28;20170;-70
2023/11/05 09:31:49;;;;;;;3.27;3.00;;;12.20;99.90;;;;;;5052041;28;20175;-69
2023/11/05 09:34:15;;;;;;;4.77;3.40;;;12.10;99.90;;;;;;5051696;28;20291;-69
2023/11/05 09:36:41;;;;;;;3.77;3.03;;;12.00;99.90;;;;;;5051836;28;20582;-70
2023/11/05 09:39:07;;;;;;;3.07;2.87;;;12.00;99.90;;;;;;5051470;28;20561;-70
2023/11/05 09:41:36;;;;;;;3.70;2.80;;;11.90;99.90;;;;;;5051865;28;20248;-70
2023/11/05 09:44:03;;;;;;;3.03;2.73;;;11.80;99.90;;;;;;5052136;28;20535;-70
2023/11/05 09:46:29;;;;;;;2.70;2.60;;;11.80;99.90;;;;;;5051587;28;20186;-70
2023/11/05 09:48:54;;;;;;;3.40;3.10;;;11.80;99.90;;;;;;5052016;28;20656;-70
2023/11/05 09:51:20;;;;;;;4.70;3.00;;;11.80;99.90;;;;;;5051815;28;20232;-70
2023/11/05 09:53:46;;;;;;;3.30;3.00;;;11.80;99.90;;;;;;5051675;28;20202;-70
2023/11/05 09:56:13;;;;;;;4.43;3.07;;;11.80;99.90;;;;;;5051110;28;20174;-70
2023/11/05 09:58:38;;;;;;;5.53;3.00;;;11.90;99.90;;;;;;5051651;28;20198;-70
2023/11/05 10:01:05;;;;;;;3.23;2.93;;;11.90;99.90;;;;;;5049670;28;20702;-70
2023/11/05 10:03:31;;;;;;;3.67;2.80;;;11.80;99.90;;;;;;5051565;28;20249;-69
2023/11/05 10:05:57;;;;;;;3.13;2.93;;;11.70;99.90;;;;;;5051023;28;20596;-70
2023/11/05 10:08:23;;;;;;;4.03;2.90;;;11.60;99.90;;;;;;5051462;28;20255;-70
2023/11/05 10:10:52;;;;;;;4.30;2.90;;;11.50;99.90;;;;;;5051450;28;20206;-70
2023/11/05 10:13:17;;;;;;;3.47;3.27;;;11.50;99.90;;;;;;5050298;28;20566;-70
2023/11/05 10:15:45;;;;;;;3.50;3.10;;;11.50;99.90;;;;;;5050786;28;20183;-70
2023/11/05 10:18:17;;;;;;;3.27;3.07;;;11.40;99.90;;;;;;5050902;28;20204;-70
2023/11/05 10:20:55;;;;;;;2.90;2.70;;;11.40;99.90;;;;;;5051256;28;20664;-70
2023/11/05 10:23:22;;;;;;;3.23;3.03;;;11.30;99.90;;;;;;5050880;28;20190;-70
2023/11/05 10:25:50;;;;;;;3.90;3.70;;;11.30;99.90;;;;;;5050655;28;20226;-70
2023/11/05 10:28:18;;;;;;;3.57;3.30;;;11.30;99.90;;;;;;5050917;28;20548;-70
2023/11/05 10:30:46;;;;;;;3.40;3.17;;;11.30;99.90;;;;;;5050990;28;20543;-70
2023/11/05 10:33:13;;;;;;;3.10;3.00;;;11.30;99.90;;;;;;5050781;28;20711;-69
2023/11/05 10:35:40;;;;;;;3.40;3.10;;;11.40;99.90;;;;;;5050567;28;20608;-69
2023/11/05 10:38:08;;;;;;;3.50;3.20;;;11.50;99.90;;;;;;5050458;28;20179;-69
2023/11/05 10:40:34;;;;;;;4.53;4.13;;;11.60;99.90;;;;;;5050848;28;20182;-70
2023/11/05 10:43:00;;;;;;;3.40;3.10;;;11.60;99.90;;;;;;5050687;28;20171;-70
2023/11/05 10:45:27;;;;;;;4.33;3.20;;;11.70;99.90;;;;;;5050938;28;20187;-70
2023/11/05 10:47:53;;;;;;;3.53;3.23;;;11.70;99.90;;;;;;5050304;28;20217;-70
2023/11/05 10:50:23;;;;;;;6.77;3.47;;;11.80;99.90;;;;;;5050527;28;20182;-70
2023/11/05 10:52:51;;;;;;;3.40;3.10;;;11.90;99.90;;;;;;5050945;28;20198;-69
2023/11/05 10:55:17;;;;;;;3.70;3.40;;;11.90;99.90;;;;;;5050830;28;20199;-69
2023/11/05 10:57:47;;;;;;;5.57;3.40;;;11.80;99.90;;;;;;5050701;28;20177;-69
2023/11/05 11:00:15;;;;;;;3.30;3.00;;;11.90;99.90;;;;;;5050919;28;20199;-70
2023/11/05 11:02:45;;;;;;;3.43;3.13;;;11.80;99.90;;;;;;5050877;28;20493;-71
2023/11/05 11:05:15;;;;;;;3.53;3.23;;;11.70;99.90;;;;;;5050529;28;20658;-69
2023/11/05 11:07:41;;;;;;;4.30;3.90;;;11.70;99.90;;;;;;5052501;28;20186;-69
2023/11/05 11:10:11;;;;;;;4.10;3.80;;;11.50;99.90;;;;;;5054390;28;20264;-69
2023/11/05 11:12:38;;;;;;;5.17;4.67;;;11.50;99.90;;;;;;5054515;28;20175;-69
2023/11/05 11:15:09;;;;;;;4.07;3.73;;;11.50;99.90;;;;;;5054461;28;20243;-69
2023/11/05 11:17:38;;;;;;;6.73;4.13;;;11.50;99.90;;;;;;5054418;28;20171;-70
2023/11/05 11:20:11;;;;;;;4.50;4.10;;;11.40;99.90;;;;;;5054234;28;20205;-70
2023/11/05 11:22:44;;;;;;;3.77;3.47;;;11.40;99.90;;;;;;5054292;28;20256;-70
2023/11/05 11:25:17;;;;;;;6.90;3.97;;;11.30;99.90;;;;;;5054072;28;20194;-70
2023/11/05 11:27:47;;;;;;;4.17;3.87;;;11.20;99.90;;;;;;5054352;28;20175;-70
2023/11/05 11:30:13;;;;;;;4.77;4.40;;;11.10;99.90;;;;;;5054302;28;20191;-69
2023/11/05 11:32:39;;;;;;;5.40;4.90;;;11.10;99.90;;;;;;5054008;28;20183;-70
2023/11/05 11:35:06;;;;;;;5.93;4.00;;;11.10;99.90;;;;;;5053651;28;20203;-69
2023/11/05 11:37:33;;;;;;;5.40;4.60;;;11.10;99.90;;;;;;5054223;28;20188;-69
2023/11/05 11:40:00;;;;;;;5.90;4.10;;;11.10;99.90;;;;;;5053605;28;20206;-72
2023/11/05 11:42:26;;;;;;;6.00;4.60;;;11.10;99.90;;;;;;5053921;28;20167;-69
2023/11/05 11:44:52;;;;;;;4.80;4.40;;;11.10;99.90;;;;;;5054010;28;20261;-72
2023/11/05 11:47:22;;;;;;;5.20;4.63;;;11.10;99.90;;;;;;5053616;28;20212;-69
2023/11/05 11:49:47;;;;;;;5.63;4.63;;;11.10;99.90;;;;;;5053883;28;20167;-71
2023/11/05 11:52:14;;;;;;;6.23;4.50;;;11.10;99.90;;;;;;5053816;28;20250;-69
2023/11/05 11:54:42;;;;;;;5.37;4.77;;;11.00;99.90;;;;;;5053499;28;20304;-70
2023/11/05 11:57:07;;;;;;;4.60;4.10;;;11.00;99.90;;;;;;5053384;28;20709;-70
2023/11/05 11:59:33;;;;;;;7.23;4.10;;;11.00;99.90;;;;;;5053765;28;20206;-71
2023/11/05 12:02:00;;;;;;;7.23;5.13;;;11.00;99.90;;;;;;5053239;28;20174;-70
2023/11/05 12:04:27;;;;;;;5.90;4.60;;;11.00;99.90;;;;;;5053514;28;20217;-70
2023/11/05 12:06:53;;;;;;;5.70;4.43;;;11.00;99.90;;;;;;5053349;28;20216;-70
2023/11/05 12:09:23;;;;;;;5.37;4.87;;;11.10;99.90;;;;;;5053485;28;20266;-70
2023/11/05 12:11:50;;;;;;;6.70;4.77;;;11.10;99.90;;;;;;5053457;28;20182;-71
2023/11/05 12:14:23;;;;;;;5.67;5.20;;;11.20;99.90;;;;;;5052656;28;20197;-71
2023/11/05 12:16:49;;;;;;;14.43;6.57;;;11.40;99.90;;;;;;5052381;28;20676;-71
2023/11/05 12:19:15;;;;;;;10.93;5.37;;;11.50;99.90;;;;;;5052878;28;20295;-70
2023/11/05 12:21:42;;;;;;;6.97;5.30;;;11.70;99.90;;;;;;5053306;28;20171;-70
2023/11/05 12:24:10;;;;;;;7.53;5.23;;;11.90;99.90;;;;;;5052934;28;20668;-70
2023/11/05 12:26:40;;;;;;;7.43;5.17;;;12.20;99.90;;;;;;5052367;28;20236;-71
2023/11/05 12:29:09;;;;;;;8.23;5.30;;;12.30;99.90;;;;;;5052417;28;20171;-72
2023/11/05 12:31:36;;;;;;;8.03;5.23;;;12.40;99.90;;;;;;5052965;28;20171;-71
2023/11/05 12:34:02;;;;;;;5.63;5.00;;;12.60;99.90;;;;;;5052794;28;20197;-71
2023/11/05 12:36:28;;;;;;;9.10;5.00;;;12.70;99.90;;;;;;5052745;28;20196;-72
2023/11/05 12:38:53;;;;;;;8.43;5.70;;;12.80;99.90;;;;;;5052759;28;20217;-71
2023/11/05 12:41:19;;;;;;;7.33;4.90;;;12.80;99.90;;;;;;5034827;28;20171;-70
2023/11/05 12:43:45;;;;;;;6.37;5.83;;;12.90;99.90;;;;;;5052674;28;20186;-72